Time;durP1;ratioP1;P1;durP2;ratioP2;P2;SDS_P1;SDS_P2;PMS_P1;PMS_P2;Temp;Humidity;BMP_temperature;BMP_pressure;BME280_temperature;BME280_humidity;BME280_pressure;Samples;Min_cycle;Max_cycle;Signal;HPM_P1;HPM_P2
2023/04/24 02:03:42;;;;;;;8.00;3.38;;;14.10;49.80;;;;;;5895913;23;20221;31
2023/04/24 02:06:10;;;;;;;10.32;3.65;;;14.10;50.00;;;;;;4812633;29;20043;-89
2023/04/24 02:08:37;;;;;;;9.98;3.92;;;14.10;50.30;;;;;;4808816;29;20043;-89
2023/04/24 02:11:05;;;;;;;8.07;3.80;;;14.00;50.80;;;;;;4812964;29;20050;-89
2023/04/24 02:13:33;;;;;;;7.87;3.60;;;14.00;50.80;;;;;;4820942;29;20056;-89
2023/04/24 02:16:02;;;;;;;7.82;3.60;;;14.00;50.80;;;;;;4818131;29;20576;-90
2023/04/24 02:18:30;;;;;;;8.98;3.60;;;14.00;50.70;;;;;;4820678;29;20050;-89
2023/04/24 02:20:57;;;;;;;9.05;4.13;;;14.00;50.30;;;;;;4823261;29;20055;-89
2023/04/24 02:23:27;;;;;;;8.95;3.95;;;14.00;50.50;;;;;;4822858;29;20046;-90
2023/04/24 02:25:55;;;;;;;8.17;3.50;;;14.00;50.50;;;;;;4814677;29;20085;-89
2023/04/24 02:28:27;;;;;;;9.07;3.28;;;14.00;50.60;;;;;;4814485;29;20078;-89
2023/04/24 02:30:54;;;;;;;9.25;3.60;;;14.00;50.70;;;;;;4803583;29;20086;-90
2023/04/24 02:33:21;;;;;;;7.47;3.42;;;13.90;50.90;;;;;;4829300;29;20042;-90
2023/04/24 02:35:49;;;;;;;10.05;3.47;;;13.90;50.40;;;;;;4837556;29;20141;-89
2023/04/24 02:38:16;;;;;;;7.40;3.50;;;14.00;50.40;;;;;;4823323;29;20639;-89
2023/04/24 02:40:43;;;;;;;8.02;3.42;;;13.90;50.50;;;;;;4830954;29;20043;-89
2023/04/24 02:43:10;;;;;;;9.38;3.03;;;14.00;50.00;;;;;;4787650;29;20111;-89
2023/04/24 02:45:39;;;;;;;9.55;2.97;;;14.00;50.20;;;;;;4823383;29;20413;-89
2023/04/24 02:48:06;;;;;;;6.95;3.30;;;14.00;49.60;;;;;;4838726;29;20058;-90
2023/04/24 02:50:36;;;;;;;8.70;3.63;;;14.00;49.70;;;;;;4823273;29;20062;-89
2023/04/24 02:53:03;;;;;;;7.72;3.08;;;14.10;49.50;;;;;;4838237;29;20427;-89
2023/04/24 02:55:30;;;;;;;10.65;3.25;;;14.10;49.20;;;;;;4838595;29;20046;-88
2023/04/24 02:57:57;;;;;;;8.77;3.05;;;14.10;48.80;;;;;;4828915;29;20555;-88
2023/04/24 03:00:25;;;;;;;7.00;2.97;;;14.10;48.90;;;;;;4812466;29;20260;-88
2023/04/24 03:02:52;;;;;;;7.97;3.23;;;14.20;49.30;;;;;;4822458;29;20055;-88
2023/04/24 03:05:20;;;;;;;7.78;2.92;;;14.10;48.90;;;;;;4823230;29;20101;-88
2023/04/24 03:07:47;;;;;;;6.50;3.00;;;14.20;49.40;;;;;;4823393;29;20062;-88
2023/04/24 03:10:15;;;;;;;8.45;3.28;;;14.10;49.20;;;;;;4823410;29;20058;-88
2023/04/24 03:12:41;;;;;;;7.07;3.35;;;14.20;48.80;;;;;;4830776;29;20047;-88
2023/04/24 03:15:09;;;;;;;7.43;2.77;;;14.20;49.20;;;;;;4840562;29;20523;-88
2023/04/24 03:17:36;;;;;;;7.50;3.53;;;14.20;48.80;;;;;;4823362;29;20573;-88
2023/04/24 03:20:05;;;;;;;6.88;3.08;;;14.20;48.90;;;;;;4816361;29;20129;-88
2023/04/24 03:22:33;;;;;;;8.07;3.10;;;14.20;48.60;;;;;;4841988;29;20072;-88
2023/04/24 03:25:03;;;;;;;9.77;3.60;;;14.20;48.90;;;;;;4834495;29;20069;-88
2023/04/24 03:27:30;;;;;;;7.93;3.03;;;14.20;48.80;;;;;;4807968;29;20562;-88
2023/04/24 03:30:03;;;;;;;6.32;2.83;;;14.20;49.00;;;;;;4813183;29;20100;-88
2023/04/24 03:32:42;;;;;;;9.30;3.33;;;14.20;48.40;;;;;;4817581;29;20050;-88
2023/04/24 03:35:12;;;;;;;8.85;2.75;;;14.20;48.80;;;;;;4840710;29;20050;-88
2023/04/24 03:37:40;;;;;;;7.15;2.88;;;14.20;48.60;;;;;;4841328;29;20420;-88
2023/04/24 03:40:29;;;;;;;8.20;2.93;;;14.20;47.80;;;;;;4838369;29;20061;-88
2023/04/24 03:42:57;;;;;;;6.97;2.85;;;14.30;48.40;;;;;;4841149;29;20149;-88
2023/04/24 03:45:24;;;;;;;9.27;3.03;;;14.30;48.20;;;;;;4826046;29;20054;-88
2023/04/24 03:47:51;;;;;;;7.90;3.00;;;14.30;47.90;;;;;;4825020;29;20081;-88
2023/04/24 03:50:19;;;;;;;8.05;3.35;;;14.30;48.20;;;;;;4819946;29;20046;-88
2023/04/24 03:52:46;;;;;;;6.80;3.00;;;14.30;48.40;;;;;;4817521;29;20058;-88
2023/04/24 03:55:23;;;;;;;8.13;3.17;;;14.30;48.10;;;;;;4807805;29;20047;-88
2023/04/24 03:57:50;;;;;;;7.57;2.92;;;14.30;48.30;;;;;;4832524;29;20054;-88
2023/04/24 04:00:21;;;;;;;7.03;2.92;;;14.40;48.80;;;;;;4834678;29;20050;-88
2023/04/24 04:02:59;;;;;;;7.10;2.92;;;14.30;48.10;;;;;;4803311;29;20055;-88
2023/04/24 04:05:26;;;;;;;9.40;3.60;;;14.40;48.40;;;;;;4789438;29;20241;-88
2023/04/24 04:07:53;;;;;;;7.93;3.15;;;14.30;48.50;;;;;;4789387;30;20142;-88
2023/04/24 04:10:20;;;;;;;6.82;2.92;;;14.30;48.20;;;;;;4791440;29;20055;-88
2023/04/24 04:12:48;;;;;;;6.68;3.10;;;14.40;48.30;;;;;;4807205;29;20054;-87
2023/04/24 04:15:15;;;;;;;7.20;2.97;;;14.40;48.10;;;;;;4793092;29;20051;-88
2023/04/24 04:17:42;;;;;;;7.27;2.50;;;14.40;48.20;;;;;;4835923;29;20043;-88
2023/04/24 04:20:10;;;;;;;9.80;2.97;;;14.40;47.90;;;;;;4808472;29;20066;-88
2023/04/24 04:22:39;;;;;;;7.65;3.20;;;14.40;47.90;;;;;;4815175;29;20405;-88
2023/04/24 04:25:13;;;;;;;6.90;2.90;;;14.40;47.80;;;;;;4798113;29;20043;-88
2023/04/24 04:27:41;;;;;;;6.65;2.60;;;14.40;47.50;;;;;;4817952;29;20070;-88
2023/04/24 04:30:10;;;;;;;7.83;3.17;;;14.40;47.70;;;;;;4819726;29;20129;-87
2023/04/24 04:32:46;;;;;;;7.13;3.08;;;14.50;47.60;;;;;;4829133;29;20111;-91
2023/04/24 04:35:13;;;;;;;8.95;3.60;;;14.50;48.30;;;;;;4840630;29;20050;-92
2023/04/24 04:37:40;;;;;;;6.78;2.95;;;14.50;48.60;;;;;;4810210;29;20099;-91
2023/04/24 04:40:14;;;;;;;7.75;2.97;;;14.50;48.20;;;;;;4825524;29;20545;-90
2023/04/24 04:42:56;;;;;;;8.20;3.07;;;14.50;48.40;;;;;;4840447;29;20042;-90
2023/04/24 04:45:26;;;;;;;8.35;3.97;;;14.50;48.90;;;;;;4840258;29;20061;-87
2023/04/24 04:48:20;;;;;;;7.90;3.20;;;14.50;48.80;;;;;;4821020;29;20054;-87
2023/04/24 04:50:47;;;;;;;9.02;2.80;;;14.50;48.30;;;;;;4839982;29;20099;-87
2023/04/24 04:53:14;;;;;;;8.13;2.85;;;14.50;47.60;;;;;;4824476;29;20050;-87
2023/04/24 04:55:41;;;;;;;8.03;2.83;;;14.50;48.40;;;;;;4839946;29;20042;-87
2023/04/24 04:58:14;;;;;;;8.95;3.25;;;14.60;47.10;;;;;;4824627;29;20054;-87
2023/04/24 05:00:42;;;;;;;7.90;3.20;;;14.60;47.70;;;;;;4824604;29;20046;-87
2023/04/24 05:03:25;;;;;;;8.57;3.38;;;14.50;48.20;;;;;;4839843;29;20080;-87
2023/04/24 05:06:01;;;;;;;7.38;2.88;;;14.60;47.40;;;;;;4824632;29;20474;-87
2023/04/24 05:08:32;;;;;;;8.93;3.33;;;14.60;47.70;;;;;;4824541;29;20058;-87
2023/04/24 05:11:00;;;;;;;7.50;3.35;;;14.60;48.60;;;;;;4824753;29;20054;-88
2023/04/24 05:13:29;;;;;;;9.02;3.45;;;14.70;48.70;;;;;;4839452;29;20103;-87
2023/04/24 05:16:15;;;;;;;10.43;3.20;;;14.70;48.60;;;;;;4837164;29;20050;-88
2023/04/24 05:18:45;;;;;;;8.25;3.30;;;14.70;48.50;;;;;;4839192;29;20118;-88
2023/04/24 05:21:17;;;;;;;6.40;3.03;;;14.70;48.40;;;;;;4824367;29;20439;-87
2023/04/24 05:23:48;;;;;;;7.18;2.95;;;14.70;48.00;;;;;;4839097;29;20069;-88
2023/04/24 05:26:23;;;;;;;7.50;3.33;;;14.70;48.30;;;;;;4839676;29;20501;-87
2023/04/24 05:28:51;;;;;;;9.68;3.17;;;14.70;48.60;;;;;;4836242;29;20062;-88
2023/04/24 05:31:18;;;;;;;7.70;3.03;;;14.80;47.90;;;;;;4824417;29;20054;-87
2023/04/24 05:33:45;;;;;;;7.13;2.97;;;14.80;47.60;;;;;;4839136;29;20137;-88
2023/04/24 05:36:13;;;;;;;9.77;3.00;;;14.80;47.40;;;;;;4824621;29;20520;-89
2023/04/24 05:38:40;;;;;;;10.02;3.38;;;14.80;47.80;;;;;;4839471;29;20497;-87
2023/04/24 05:41:07;;;;;;;8.77;3.70;;;14.80;47.60;;;;;;4824256;29;20046;-88
2023/04/24 05:43:35;;;;;;;10.95;3.78;;;14.90;48.30;;;;;;4839195;29;20132;-87
2023/04/24 05:46:02;;;;;;;7.30;2.97;;;15.00;48.60;;;;;;4839076;29;20062;-88
2023/04/24 05:48:29;;;;;;;7.65;3.28;;;15.00;47.90;;;;;;4839219;29;20058;-88
2023/04/24 05:51:00;;;;;;;7.88;3.05;;;15.00;48.20;;;;;;4824032;29;20042;-87
2023/04/24 05:53:27;;;;;;;8.93;3.05;;;15.00;48.20;;;;;;4839219;29;20053;-88
2023/04/24 05:55:54;;;;;;;7.60;3.97;;;15.10;47.30;;;;;;4823720;29;20496;-87
2023/04/24 05:58:21;;;;;;;7.07;3.73;;;15.20;48.00;;;;;;4834929;29;20050;-87
2023/04/24 06:00:49;;;;;;;23.05;3.85;;;15.20;47.10;;;;;;4805318;29;20047;-86
2023/04/24 06:03:17;;;;;;;10.02;3.60;;;15.30;47.40;;;;;;4805443;29;20070;-86
2023/04/24 06:05:51;;;;;;;10.88;3.35;;;15.30;47.80;;;;;;4807716;29;20054;-86
2023/04/24 06:08:18;;;;;;;9.32;3.33;;;15.30;47.30;;;;;;4823416;29;20145;-86
2023/04/24 06:10:46;;;;;;;8.40;3.30;;;15.40;47.10;;;;;;4823776;29;20133;-86
2023/04/24 06:13:14;;;;;;;7.88;3.05;;;15.50;47.10;;;;;;4833459;29;20046;-87
2023/04/24 06:15:53;;;;;;;8.65;3.72;;;15.50;47.30;;;;;;4824101;29;20137;-87
2023/04/24 06:18:29;;;;;;;8.85;3.72;;;15.50;47.60;;;;;;4823803;29;20050;-88
2023/04/24 06:20:56;;;;;;;10.73;3.78;;;15.70;47.80;;;;;;4824804;29;20046;-87
2023/04/24 06:23:23;;;;;;;10.97;3.83;;;15.80;47.20;;;;;;4823445;29;20049;-88
2023/04/24 06:25:51;;;;;;;7.13;3.10;;;15.80;47.20;;;;;;4838740;29;20057;-86
2023/04/24 06:28:18;;;;;;;12.82;3.83;;;15.80;46.70;;;;;;4823481;29;20066;-88
2023/04/24 06:30:45;;;;;;;8.02;4.00;;;15.90;46.90;;;;;;4838964;29;20058;-88
2023/04/24 06:33:12;;;;;;;10.25;4.55;;;16.00;47.20;;;;;;4816052;29;20095;-88
2023/04/24 06:35:45;;;;;;;8.60;4.37;;;16.00;47.70;;;;;;4791518;29;20058;-88
2023/04/24 06:38:12;;;;;;;12.45;4.50;;;16.10;47.20;;;;;;4793993;29;20569;-88
2023/04/24 06:40:39;;;;;;;10.02;4.13;;;16.20;47.80;;;;;;4808888;29;20405;-87
2023/04/24 06:43:06;;;;;;;9.93;4.45;;;16.30;47.50;;;;;;4809111;29;20150;-88
2023/04/24 06:45:34;;;;;;;8.30;3.50;;;16.50;47.80;;;;;;4794142;29;20046;-87
2023/04/24 06:48:01;;;;;;;7.77;3.60;;;16.60;47.10;;;;;;4809027;29;20055;-88
2023/04/24 06:50:29;;;;;;;9.70;4.13;;;16.70;47.30;;;;;;4794051;29;20085;-88
2023/04/24 06:52:56;;;;;;;14.02;4.28;;;16.70;47.50;;;;;;4794241;29;20513;-88
2023/04/24 06:55:23;;;;;;;7.60;3.55;;;16.90;47.80;;;;;;4811456;29;20049;-88
2023/04/24 06:57:50;;;;;;;9.60;3.63;;;17.00;47.60;;;;;;4817097;29;20497;-88
2023/04/24 07:00:20;;;;;;;8.83;3.57;;;17.00;46.80;;;;;;4823783;29;20054;-89
2023/04/24 07:02:47;;;;;;;7.45;3.20;;;17.10;46.10;;;;;;4823909;29;20055;-88
2023/04/24 07:05:15;;;;;;;9.45;3.83;;;17.10;46.90;;;;;;4808653;29;20089;-88
2023/04/24 07:07:43;;;;;;;8.45;3.42;;;17.10;47.20;;;;;;4823548;29;20070;-88
2023/04/24 07:15:00;;;;;;;9.70;3.10;;;17.30;47.90;;;;;;4809580;29;20070;-88
2023/04/24 07:17:27;;;;;;;7.78;3.28;;;17.30;47.30;;;;;;4833042;29;20519;-90
2023/04/24 07:19:54;;;;;;;8.48;3.72;;;17.30;47.40;;;;;;4831291;29;20528;-90
2023/04/24 07:26:59;;;;;;;15.02;3.90;;;17.30;47.60;;;;;;4815084;29;20114;-90
2023/04/24 07:29:26;;;;;;;15.23;4.40;;;17.30;47.70;;;;;;4789957;29;20452;-90
2023/04/24 07:31:53;;;;;;;14.68;4.25;;;17.30;47.20;;;;;;4838485;29;20103;-90
2023/04/24 07:34:21;;;;;;;14.85;5.45;;;17.30;47.10;;;;;;4823031;29;20070;-91
2023/04/24 07:36:48;;;;;;;14.57;5.95;;;17.30;47.50;;;;;;4817282;29;20234;-92
2023/04/24 07:39:15;;;;;;;13.75;6.40;;;17.30;47.40;;;;;;4808849;29;20104;-91
2023/04/24 07:41:42;;;;;;;39.20;8.97;;;17.20;47.70;;;;;;4792641;29;20502;-87
2023/04/24 07:44:09;;;;;;;17.23;6.00;;;17.20;47.70;;;;;;4840728;29;20054;-87
2023/04/24 07:46:36;;;;;;;17.33;9.55;;;17.10;46.70;;;;;;4825331;29;20470;-87
2023/04/24 07:49:05;;;;;;;43.95;10.30;;;17.10;47.50;;;;;;4840377;29;20058;-87
2023/04/24 07:51:41;;;;;;;17.88;5.70;;;17.10;47.20;;;;;;4804119;29;20089;-86
2023/04/24 07:54:08;;;;;;;12.33;4.57;;;17.10;47.50;;;;;;4823872;29;20057;-86
2023/04/24 07:56:38;;;;;;;12.48;5.00;;;17.10;47.30;;;;;;4825037;29;20412;-86
2023/04/24 07:59:06;;;;;;;20.52;5.45;;;17.10;46.70;;;;;;4823841;29;20047;-86
2023/04/24 08:01:33;;;;;;;15.50;5.30;;;17.10;47.50;;;;;;4806769;29;20134;-87
2023/04/24 08:04:00;;;;;;;14.73;5.72;;;17.10;47.80;;;;;;4807212;29;20059;-86
2023/04/24 08:06:30;;;;;;;12.70;4.93;;;17.10;47.60;;;;;;4825017;29;20497;-86
2023/04/24 08:08:58;;;;;;;11.50;5.15;;;17.10;48.90;;;;;;4825187;29;20061;-86
2023/04/24 08:11:25;;;;;;;11.90;4.78;;;17.10;48.90;;;;;;4794689;29;20467;-87
2023/04/24 08:13:54;;;;;;;14.63;4.60;;;17.10;48.30;;;;;;4809555;29;20057;-87
2023/04/24 08:16:26;;;;;;;9.77;4.30;;;17.00;48.50;;;;;;4824863;29;20053;-86
2023/04/24 08:18:53;;;;;;;12.13;4.43;;;17.00;47.50;;;;;;4834644;29;20409;-86
2023/04/24 08:21:21;;;;;;;11.65;5.07;;;16.90;47.90;;;;;;4826538;29;20050;-86
2023/04/24 08:23:48;;;;;;;13.57;4.50;;;16.80;48.40;;;;;;4823379;29;20050;-86
2023/04/24 08:26:15;;;;;;;9.45;3.97;;;16.80;48.70;;;;;;4824678;29;20564;-86
2023/04/24 08:28:42;;;;;;;11.85;4.60;;;16.80;48.70;;;;;;4839058;29;20050;-86
2023/04/24 08:31:09;;;;;;;11.93;5.00;;;16.80;48.30;;;;;;4811430;29;20146;-87
2023/04/24 08:33:37;;;;;;;10.57;4.65;;;16.70;48.40;;;;;;4837011;29;20055;-87
2023/04/24 08:36:05;;;;;;;12.82;4.72;;;16.80;48.90;;;;;;4828106;29;20077;-87
2023/04/24 08:38:33;;;;;;;10.95;4.43;;;16.80;49.20;;;;;;4813231;29;20045;-87
2023/04/24 08:41:01;;;;;;;9.98;4.25;;;16.70;48.70;;;;;;4836073;29;20051;-86
2023/04/24 08:43:28;;;;;;;9.80;4.27;;;16.80;49.40;;;;;;4836687;29;20092;-86
2023/04/24 08:45:56;;;;;;;8.55;4.03;;;16.80;49.20;;;;;;4818451;29;20409;-86
2023/04/24 08:48:25;;;;;;;9.02;3.70;;;16.70;49.00;;;;;;4823777;29;20141;-86
2023/04/24 08:50:59;;;;;;;9.70;4.00;;;16.70;49.30;;;;;;4827111;29;20492;-86
2023/04/24 08:53:26;;;;;;;9.73;4.60;;;16.70;48.70;;;;;;4825518;29;20064;-86
2023/04/24 08:55:56;;;;;;;11.53;4.17;;;16.60;48.90;;;;;;4821848;29;20078;-86
2023/04/24 08:58:26;;;;;;;8.43;4.13;;;16.60;49.00;;;;;;4827213;29;20058;-86
2023/04/24 09:00:57;;;;;;;9.10;4.30;;;16.60;49.10;;;;;;4833171;29;20050;-86
2023/04/24 09:03:26;;;;;;;12.85;4.95;;;16.60;49.40;;;;;;4820784;29;20046;-85
2023/04/24 09:05:55;;;;;;;9.40;4.55;;;16.60;50.00;;;;;;4834026;29;20160;-86
2023/04/24 09:08:25;;;;;;;10.13;4.70;;;16.70;50.60;;;;;;4808782;29;20058;-86
2023/04/24 09:10:52;;;;;;;9.60;4.32;;;16.70;49.90;;;;;;4809848;29;20061;-86
2023/04/24 09:13:20;;;;;;;8.00;3.70;;;16.70;49.80;;;;;;4794698;29;20146;-86
2023/04/24 09:15:47;;;;;;;10.52;4.35;;;16.80;49.20;;;;;;4792905;29;20050;-86
2023/04/24 09:18:14;;;;;;;9.02;3.83;;;16.80;48.80;;;;;;4796615;29;20085;-86
2023/04/24 09:21:06;;;;;;;9.13;4.00;;;16.90;50.20;;;;;;4790742;29;20062;-86
2023/04/24 09:23:34;;;;;;;7.63;3.67;;;17.00;50.70;;;;;;4809255;29;20439;-86
2023/04/24 09:26:06;;;;;;;9.73;4.18;;;17.10;50.30;;;;;;4826563;29;20102;-86
2023/04/24 09:28:37;;;;;;;9.63;4.05;;;17.20;50.80;;;;;;4805420;29;20580;-86
2023/04/24 09:31:14;;;;;;;7.93;4.20;;;17.30;49.50;;;;;;4809633;29;20056;-86
2023/04/24 09:33:58;;;;;;;7.60;3.93;;;17.40;49.90;;;;;;4823579;29;20501;-86
2023/04/24 09:36:38;;;;;;;8.95;3.80;;;17.50;49.30;;;;;;4817591;29;20477;-86
2023/04/24 09:39:08;;;;;;;9.27;4.05;;;17.50;50.40;;;;;;4841597;29;20459;-85
2023/04/24 09:41:43;;;;;;;11.73;3.78;;;17.50;48.80;;;;;;4804985;29;20046;-85
2023/04/24 09:44:16;;;;;;;10.60;3.97;;;17.50;49.20;;;;;;4809936;29;20057;-86
2023/04/24 09:46:45;;;;;;;12.47;4.07;;;17.40;50.30;;;;;;4831394;29;20046;-86
2023/04/24 09:49:20;;;;;;;9.18;3.95;;;17.30;49.70;;;;;;4825348;29;20047;-86
2023/04/24 09:51:47;;;;;;;13.20;4.07;;;17.10;49.00;;;;;;4832283;29;20058;-86
2023/04/24 09:54:15;;;;;;;9.73;3.55;;;17.00;49.30;;;;;;4823286;29;20153;-86
2023/04/24 09:56:45;;;;;;;7.80;3.80;;;16.80;49.50;;;;;;4824789;29;20050;-86
2023/04/24 09:59:17;;;;;;;12.23;4.33;;;16.70;49.70;;;;;;4841380;29;20084;-86
2023/04/24 10:01:44;;;;;;;8.40;3.55;;;16.60;50.20;;;;;;4836983;29;20500;-86
2023/04/24 10:04:23;;;;;;;8.80;4.20;;;16.50;50.30;;;;;;4823167;29;20500;-86
2023/04/24 10:06:53;;;;;;;8.10;3.67;;;16.50;51.20;;;;;;4823484;29;20103;-86
2023/04/24 10:09:22;;;;;;;10.07;3.90;;;16.50;51.00;;;;;;4823346;29;20149;-86
2023/04/24 10:11:51;;;;;;;8.23;3.77;;;16.40;52.10;;;;;;4810792;29;20050;-86
2023/04/24 10:14:20;;;;;;;7.85;4.18;;;16.30;53.10;;;;;;4819558;29;20045;-86
2023/04/24 10:16:48;;;;;;;10.80;4.15;;;16.30;53.30;;;;;;4841159;29;20138;-86
2023/04/24 10:19:18;;;;;;;8.93;4.38;;;16.20;53.80;;;;;;4841830;29;20077;-85
2023/04/24 10:21:46;;;;;;;7.35;3.75;;;16.10;54.80;;;;;;4826702;29;20517;-86
2023/04/24 10:24:15;;;;;;;9.83;5.67;;;15.90;55.70;;;;;;4818243;29;20098;-86
2023/04/24 10:26:43;;;;;;;8.32;4.65;;;15.80;58.60;;;;;;4842660;29;20057;-86
2023/04/24 10:29:12;;;;;;;8.23;4.22;;;15.80;57.30;;;;;;4811723;29;20390;-86
2023/04/24 10:31:40;;;;;;;9.27;4.45;;;15.70;57.50;;;;;;4824236;29;20050;-86
2023/04/24 10:34:09;;;;;;;8.90;4.70;;;15.70;58.20;;;;;;4844954;29;20050;-86
2023/04/24 10:36:41;;;;;;;9.43;4.20;;;15.70;58.20;;;;;;4829865;29;20098;-86
2023/04/24 10:39:14;;;;;;;9.13;4.55;;;15.70;57.80;;;;;;4817882;29;20065;-86
2023/04/24 10:41:42;;;;;;;9.90;4.70;;;15.70;58.20;;;;;;4827105;29;20121;-86
2023/04/24 10:44:10;;;;;;;11.35;4.72;;;15.80;58.70;;;;;;4811214;29;20518;-86
2023/04/24 10:46:39;;;;;;;9.00;4.70;;;15.90;58.60;;;;;;4791891;29;20414;-86
2023/04/24 10:49:08;;;;;;;8.17;4.50;;;16.00;58.40;;;;;;4829418;29;20064;-86
2023/04/24 10:51:48;;;;;;;10.48;4.70;;;16.00;57.60;;;;;;4837925;29;20116;-86
2023/04/24 10:54:34;;;;;;;11.35;4.65;;;16.00;58.90;;;;;;4810998;29;20058;-86
2023/04/24 10:57:22;;;;;;;9.18;4.47;;;16.00;57.70;;;;;;4835455;29;20057;-86
2023/04/24 10:59:52;;;;;;;9.55;5.28;;;16.00;57.70;;;;;;4817545;29;20054;-86
2023/04/24 11:02:36;;;;;;;9.57;5.50;;;16.00;58.30;;;;;;4811136;29;20102;-86
2023/04/24 11:05:04;;;;;;;10.52;5.53;;;16.10;58.90;;;;;;4834984;29;20064;-86
2023/04/24 11:08:13;;;;;;;10.93;4.88;;;16.20;58.70;;;;;;4829927;29;20508;-86
2023/04/24 11:11:18;;;;;;;7.65;4.30;;;16.20;58.80;;;;;;4826178;29;20066;-86
2023/04/24 11:13:54;;;;;;;9.82;4.85;;;16.20;59.10;;;;;;4793080;29;20062;-86
2023/04/24 11:16:34;;;;;;;9.60;4.77;;;16.30;59.00;;;;;;4833004;29;20154;-86
2023/04/24 11:19:08;;;;;;;9.07;5.47;;;16.40;60.40;;;;;;4810893;29;20058;-86
2023/04/24 11:21:42;;;;;;;10.73;5.18;;;16.40;60.40;;;;;;4795792;29;20082;-86
2023/04/24 11:24:37;;;;;;;12.15;5.78;;;16.30;57.80;;;;;;4825311;29;20058;-86
2023/04/24 11:27:15;;;;;;;11.43;5.85;;;16.20;59.00;;;;;;4796228;29;20142;-86
2023/04/24 11:29:45;;;;;;;12.83;5.77;;;16.10;58.00;;;;;;4825672;29;20055;-86
2023/04/24 11:32:19;;;;;;;12.88;5.15;;;16.10;57.20;;;;;;4825702;29;20054;-86
2023/04/24 11:34:48;;;;;;;13.25;5.32;;;16.00;57.80;;;;;;4812989;29;20050;-86
2023/04/24 11:37:15;;;;;;;12.95;6.35;;;16.10;58.00;;;;;;4843727;29;20145;-86
2023/04/24 11:39:42;;;;;;;14.38;6.47;;;16.00;57.90;;;;;;4814918;29;20521;-86
2023/04/24 11:42:10;;;;;;;12.63;5.27;;;16.00;58.90;;;;;;4777510;29;20039;-86
2023/04/24 11:44:37;;;;;;;15.52;5.90;;;16.00;58.60;;;;;;4792745;29;20088;-86
2023/04/24 11:47:06;;;;;;;14.32;7.90;;;15.90;59.80;;;;;;4828501;29;20085;-86
2023/04/24 11:49:39;;;;;;;10.50;5.28;;;15.90;60.00;;;;;;4828618;29;20516;-86
2023/04/24 11:52:06;;;;;;;14.82;8.63;;;15.80;60.10;;;;;;4825069;29;20103;-86
2023/04/24 11:54:33;;;;;;;16.37;9.30;;;15.60;61.10;;;;;;4810036;29;20054;-86
2023/04/24 11:57:05;;;;;;;9.07;5.45;;;15.60;62.00;;;;;;4827366;29;20042;-86
2023/04/24 11:59:37;;;;;;;9.73;5.07;;;15.60;62.30;;;;;;4825002;29;20470;-85
2023/04/24 12:02:05;;;;;;;10.13;5.55;;;15.60;63.30;;;;;;4835059;29;20063;-86
2023/04/24 12:04:42;;;;;;;9.63;5.47;;;15.50;64.00;;;;;;4825018;29;20054;-86
2023/04/24 12:07:09;;;;;;;10.10;5.70;;;15.50;64.70;;;;;;4809826;29;20056;-86
2023/04/24 12:09:45;;;;;;;10.98;6.38;;;15.40;65.50;;;;;;4787481;29;20058;-86
2023/04/24 12:12:16;;;;;;;13.20;6.80;;;15.20;65.90;;;;;;4809758;29;20497;-86
2023/04/24 12:14:44;;;;;;;15.50;7.60;;;15.00;66.60;;;;;;4810207;29;20573;-86
2023/04/24 12:17:11;;;;;;;27.15;15.70;;;14.80;68.20;;;;;;4809714;29;20050;-86
2023/04/24 12:19:47;;;;;;;27.27;16.70;;;14.80;68.80;;;;;;4809759;29;20577;-85
2023/04/24 12:22:15;;;;;;;25.00;15.20;;;14.80;69.80;;;;;;4809700;29;20085;-85
2023/04/24 12:25:05;;;;;;;25.92;15.77;;;14.90;69.50;;;;;;4809656;29;20081;-86
2023/04/24 12:27:32;;;;;;;14.48;9.02;;;14.90;71.00;;;;;;4839999;29;20050;-86
2023/04/24 12:30:03;;;;;;;11.27;7.97;;;14.90;70.10;;;;;;4827870;29;20048;-86
2023/04/24 12:32:30;;;;;;;12.00;7.73;;;14.70;71.30;;;;;;4842708;29;20144;-86
2023/04/24 12:34:58;;;;;;;11.02;7.15;;;14.60;71.50;;;;;;4841692;29;20046;-86
2023/04/24 12:37:26;;;;;;;14.10;7.80;;;14.60;71.40;;;;;;4827614;29;20110;-86
2023/04/24 12:40:10;;;;;;;11.48;8.25;;;14.60;72.40;;;;;;4842641;29;20049;-86
2023/04/24 12:42:51;;;;;;;14.57;9.55;;;14.50;72.70;;;;;;4839553;29;20114;-86
2023/04/24 12:45:18;;;;;;;13.30;8.03;;;14.40;73.90;;;;;;4809188;29;20118;-86
2023/04/24 12:47:48;;;;;;;14.13;8.38;;;14.40;73.90;;;;;;4809422;29;20057;-86
2023/04/24 12:50:15;;;;;;;11.90;8.70;;;14.30;73.80;;;;;;4824655;29;20054;-86
2023/04/24 12:52:43;;;;;;;13.15;8.52;;;14.30;73.80;;;;;;4820442;29;20054;-86
2023/04/24 12:55:11;;;;;;;14.57;8.52;;;14.10;73.80;;;;;;4809111;29;20108;-86
2023/04/24 12:57:40;;;;;;;14.37;8.50;;;14.10;74.40;;;;;;4824288;29;20523;-86
2023/04/24 13:00:08;;;;;;;13.75;8.43;;;14.10;74.20;;;;;;4826595;29;20521;-86
2023/04/24 13:02:36;;;;;;;13.77;9.63;;;14.00;74.40;;;;;;4842412;29;20449;-86
2023/04/24 13:05:03;;;;;;;14.60;9.90;;;14.00;74.60;;;;;;4802444;29;20055;-86
2023/04/24 13:07:31;;;;;;;13.77;8.95;;;14.00;74.90;;;;;;4787834;30;20051;-86
2023/04/24 13:09:58;;;;;;;13.43;9.13;;;14.00;74.80;;;;;;4787945;29;20043;-86
2023/04/24 13:12:26;;;;;;;15.05;8.88;;;14.10;74.80;;;;;;4788074;29;20047;-86
2023/04/24 13:14:53;;;;;;;13.65;8.90;;;14.10;74.80;;;;;;4787909;30;20395;-86
2023/04/24 13:17:22;;;;;;;17.98;10.50;;;14.20;74.70;;;;;;4803495;29;20074;-86
2023/04/24 13:19:51;;;;;;;16.30;10.43;;;14.30;74.60;;;;;;4831493;29;20046;-86
2023/04/24 13:22:18;;;;;;;14.47;9.87;;;14.30;74.70;;;;;;4809011;29;20079;-87
2023/04/24 13:24:45;;;;;;;14.65;9.13;;;14.40;74.20;;;;;;4836075;29;20046;-86
2023/04/24 13:27:12;;;;;;;13.30;8.73;;;14.40;74.60;;;;;;4805587;29;20050;-87
2023/04/24 13:29:40;;;;;;;14.02;9.52;;;14.40;74.30;;;;;;4831609;29;20531;-86
2023/04/24 13:32:08;;;;;;;16.13;9.88;;;14.50;74.70;;;;;;4819340;29;20070;-86
2023/04/24 13:34:36;;;;;;;16.57;10.90;;;14.50;74.40;;;;;;4805480;29;20067;-87
2023/04/24 13:37:04;;;;;;;18.30;12.13;;;14.50;73.60;;;;;;4818814;29;20051;-87
2023/04/24 13:39:31;;;;;;;14.00;9.18;;;14.50;73.60;;;;;;4788836;29;20106;-86
2023/04/24 13:41:58;;;;;;;14.43;8.82;;;14.40;73.50;;;;;;4787511;30;20048;-86
2023/04/24 13:44:26;;;;;;;16.73;10.02;;;14.30;72.70;;;;;;4794496;29;20106;-86
2023/04/24 13:46:56;;;;;;;15.47;9.33;;;14.30;73.60;;;;;;4813836;29;20065;-86
2023/04/24 13:49:27;;;;;;;14.93;8.80;;;14.20;74.30;;;;;;4822663;29;20058;-86
2023/04/24 13:51:55;;;;;;;14.75;9.98;;;14.20;74.00;;;;;;4815204;29;20115;-86
2023/04/24 13:54:25;;;;;;;16.10;10.30;;;14.30;74.00;;;;;;4810511;29;20098;-86
2023/04/24 13:56:56;;;;;;;18.55;11.15;;;14.30;74.10;;;;;;4838424;29;20505;-87
2023/04/24 13:59:23;;;;;;;21.57;11.90;;;14.30;74.50;;;;;;4819259;29;20047;-86
2023/04/24 14:01:51;;;;;;;16.80;10.25;;;14.30;74.50;;;;;;4805221;29;20053;-86
2023/04/24 14:04:18;;;;;;;16.98;10.82;;;14.30;74.80;;;;;;4822972;29;20074;-87
2023/04/24 14:06:45;;;;;;;16.70;10.50;;;14.30;74.80;;;;;;4823627;29;20141;-87
2023/04/24 14:09:12;;;;;;;14.05;9.70;;;14.20;75.00;;;;;;4810856;29;20454;-86
2023/04/24 14:11:40;;;;;;;15.10;10.00;;;14.20;74.90;;;;;;4791433;29;20051;-86
2023/04/24 14:14:08;;;;;;;15.20;9.07;;;14.30;74.30;;;;;;4828732;29;20066;-87
2023/04/24 14:16:35;;;;;;;15.48;10.27;;;14.30;73.80;;;;;;4809534;29;20077;-86
2023/04/24 14:19:02;;;;;;;18.70;11.52;;;14.30;74.60;;;;;;4824072;29;20410;-87
2023/04/24 14:21:30;;;;;;;15.85;10.40;;;14.20;74.30;;;;;;4808189;29;20050;-87
2023/04/24 14:23:57;;;;;;;15.33;10.27;;;14.30;74.10;;;;;;4831922;29;20050;-86
2023/04/24 14:26:24;;;;;;;16.55;11.45;;;14.30;74.40;;;;;;4811272;29;20500;-87
2023/04/24 14:28:52;;;;;;;16.20;9.40;;;14.20;74.70;;;;;;4827020;29;20046;-85
2023/04/24 14:31:33;;;;;;;13.85;9.15;;;14.20;73.60;;;;;;4819582;29;20082;-87
2023/04/24 14:34:02;;;;;;;13.13;7.80;;;14.20;73.00;;;;;;4825630;29;20103;-86
2023/04/24 14:36:31;;;;;;;12.70;7.10;;;14.20;73.30;;;;;;4814582;29;20052;-86
2023/04/24 14:38:58;;;;;;;12.05;7.20;;;14.10;72.60;;;;;;4823838;29;20095;-87
2023/04/24 14:41:25;;;;;;;13.27;8.45;;;14.10;72.20;;;;;;4810657;29;20050;-87
2023/04/24 14:43:52;;;;;;;12.00;8.10;;;14.10;72.70;;;;;;4823623;29;20408;-87
2023/04/24 14:46:20;;;;;;;10.85;7.32;;;14.10;72.70;;;;;;4823863;29;20054;-87
2023/04/24 14:48:47;;;;;;;11.53;7.10;;;14.10;72.70;;;;;;4825788;29;20050;-87
2023/04/24 14:51:14;;;;;;;14.43;8.05;;;14.00;72.20;;;;;;4824559;29;20470;-86
2023/04/24 14:53:41;;;;;;;11.82;7.60;;;14.00;72.10;;;;;;4830704;29;20137;-86
2023/04/24 14:56:08;;;;;;;12.32;7.78;;;14.00;71.80;;;;;;4812740;29;20137;-87
2023/04/24 14:58:35;;;;;;;13.13;8.00;;;14.00;72.00;;;;;;4835952;29;20050;-87
2023/04/24 15:01:02;;;;;;;13.57;8.07;;;14.00;71.80;;;;;;4828435;29;20053;-87
2023/04/24 15:03:30;;;;;;;14.82;8.00;;;14.00;72.50;;;;;;4831204;29;20047;-86
2023/04/24 15:05:58;;;;;;;11.60;7.40;;;14.00;72.20;;;;;;4813659;29;20157;-87